sensor_id;sensor_type;location;lat;lon;timestamp;P1;durP1;ratioP1;P2;durP2;ratioP2
5345;SDS011;2695;49.444;11.054;2023-06-22T00:01:24;9.80;;;6.50;;
5345;SDS011;2695;49.444;11.054;2023-06-22T00:03:52;12.27;;;7.17;;
5345;SDS011;2695;49.444;11.054;2023-06-22T00:06:20;13.57;;;8.00;;
5345;SDS011;2695;49.444;11.054;2023-06-22T00:08:49;9.67;;;6.70;;
5345;SDS011;2695;49.444;11.054;2023-06-22T00:11:17;12.07;;;7.33;;
5345;SDS011;2695;49.444;11.054;2023-06-22T00:13:46;9.50;;;6.77;;
5345;SDS011;2695;49.444;11.054;2023-06-22T00:16:15;10.57;;;6.50;;
5345;SDS011;2695;49.444;11.054;2023-06-22T00:18:43;11.23;;;7.10;;
5345;SDS011;2695;49.444;11.054;2023-06-22T00:21:13;9.50;;;7.40;;
5345;SDS011;2695;49.444;11.054;2023-06-22T00:23:41;10.90;;;7.40;;
5345;SDS011;2695;49.444;11.054;2023-06-22T00:26:11;11.50;;;7.10;;
5345;SDS011;2695;49.444;11.054;2023-06-22T00:28:39;11.53;;;7.07;;
5345;SDS011;2695;49.444;11.054;2023-06-22T00:31:07;14.87;;;7.87;;
5345;SDS011;2695;49.444;11.054;2023-06-22T00:36:09;7.60;;;6.33;;
5345;SDS011;2695;49.444;11.054;2023-06-22T00:38:39;7.87;;;6.33;;
5345;SDS011;2695;49.444;11.054;2023-06-22T00:41:07;11.73;;;7.20;;
5345;SDS011;2695;49.444;11.054;2023-06-22T00:43:36;11.10;;;5.80;;
5345;SDS011;2695;49.444;11.054;2023-06-22T00:46:04;6.30;;;5.17;;
5345;SDS011;2695;49.444;11.054;2023-06-22T00:48:33;9.47;;;6.63;;
5345;SDS011;2695;49.444;11.054;2023-06-22T00:51:03;12.20;;;6.87;;
5345;SDS011;2695;49.444;11.054;2023-06-22T00:53:31;11.73;;;6.70;;
5345;SDS011;2695;49.444;11.054;2023-06-22T00:56:01;10.93;;;7.03;;
5345;SDS011;2695;49.444;11.054;2023-06-22T00:58:29;8.80;;;5.70;;
5345;SDS011;2695;49.444;11.054;2023-06-22T01:00:59;10.50;;;6.67;;
5345;SDS011;2695;49.444;11.054;2023-06-22T01:03:28;7.93;;;6.33;;
5345;SDS011;2695;49.444;11.054;2023-06-22T01:05:58;11.40;;;6.60;;
5345;SDS011;2695;49.444;11.054;2023-06-22T01:08:36;9.57;;;6.60;;
5345;SDS011;2695;49.444;11.054;2023-06-22T01:11:10;7.60;;;6.57;;
5345;SDS011;2695;49.444;11.054;2023-06-22T01:13:44;8.57;;;6.40;;
5345;SDS011;2695;49.444;11.054;2023-06-22T01:16:28;9.53;;;6.93;;
5345;SDS011;2695;49.444;11.054;2023-06-22T01:19:00;8.43;;;5.60;;
5345;SDS011;2695;49.444;11.054;2023-06-22T01:21:32;7.70;;;5.77;;
5345;SDS011;2695;49.444;11.054;2023-06-22T01:24:02;9.90;;;6.30;;
5345;SDS011;2695;49.444;11.054;2023-06-22T01:26:43;14.57;;;7.07;;
5345;SDS011;2695;49.444;11.054;2023-06-22T01:29:20;8.23;;;6.90;;
5345;SDS011;2695;49.444;11.054;2023-06-22T01:31:49;7.90;;;5.70;;
5345;SDS011;2695;49.444;11.054;2023-06-22T01:34:18;7.07;;;5.13;;
5345;SDS011;2695;49.444;11.054;2023-06-22T01:36:47;10.63;;;6.10;;
5345;SDS011;2695;49.444;11.054;2023-06-22T01:39:15;6.87;;;5.40;;
5345;SDS011;2695;49.444;11.054;2023-06-22T01:41:44;8.83;;;6.27;;
5345;SDS011;2695;49.444;11.054;2023-06-22T01:44:14;9.97;;;6.73;;
5345;SDS011;2695;49.444;11.054;2023-06-22T01:46:44;10.60;;;6.07;;
5345;SDS011;2695;49.444;11.054;2023-06-22T01:49:13;6.80;;;6.10;;
5345;SDS011;2695;49.444;11.054;2023-06-22T01:51:42;13.13;;;6.40;;
5345;SDS011;2695;49.444;11.054;2023-06-22T01:54:09;9.47;;;6.00;;
5345;SDS011;2695;49.444;11.054;2023-06-22T01:56:38;7.50;;;6.17;;
5345;SDS011;2695;49.444;11.054;2023-06-22T01:59:08;9.73;;;6.30;;
5345;SDS011;2695;49.444;11.054;2023-06-22T02:01:41;7.40;;;5.67;;
5345;SDS011;2695;49.444;11.054;2023-06-22T02:04:17;9.67;;;6.10;;
5345;SDS011;2695;49.444;11.054;2023-06-22T02:06:49;9.63;;;6.50;;
5345;SDS011;2695;49.444;11.054;2023-06-22T02:09:22;9.40;;;6.47;;
5345;SDS011;2695;49.444;11.054;2023-06-22T02:11:52;10.70;;;6.67;;
5345;SDS011;2695;49.444;11.054;2023-06-22T02:14:23;12.10;;;6.20;;
5345;SDS011;2695;49.444;11.054;2023-06-22T02:16:53;8.97;;;6.60;;
5345;SDS011;2695;49.444;11.054;2023-06-22T02:19:26;10.87;;;6.53;;
5345;SDS011;2695;49.444;11.054;2023-06-22T02:21:57;9.53;;;6.70;;
5345;SDS011;2695;49.444;11.054;2023-06-22T02:24:25;10.47;;;6.30;;
5345;SDS011;2695;49.444;11.054;2023-06-22T02:26:53;8.17;;;6.63;;
5345;SDS011;2695;49.444;11.054;2023-06-22T02:29:20;9.00;;;6.27;;
5345;SDS011;2695;49.444;11.054;2023-06-22T02:31:48;8.57;;;6.67;;
5345;SDS011;2695;49.444;11.054;2023-06-22T02:34:18;10.97;;;7.23;;
5345;SDS011;2695;49.444;11.054;2023-06-22T02:36:46;9.93;;;6.70;;
5345;SDS011;2695;49.444;11.054;2023-06-22T02:39:21;11.97;;;7.20;;
5345;SDS011;2695;49.444;11.054;2023-06-22T02:41:50;10.90;;;6.40;;
5345;SDS011;2695;49.444;11.054;2023-06-22T02:44:19;7.60;;;5.67;;
5345;SDS011;2695;49.444;11.054;2023-06-22T02:46:48;7.07;;;6.00;;
5345;SDS011;2695;49.444;11.054;2023-06-22T02:49:16;8.00;;;6.30;;
5345;SDS011;2695;49.444;11.054;2023-06-22T02:51:45;8.60;;;6.53;;
5345;SDS011;2695;49.444;11.054;2023-06-22T02:54:15;9.20;;;6.60;;
5345;SDS011;2695;49.444;11.054;2023-06-22T02:56:44;8.40;;;6.30;;
5345;SDS011;2695;49.444;11.054;2023-06-22T02:59:12;13.03;;;6.77;;
5345;SDS011;2695;49.444;11.054;2023-06-22T03:01:40;8.80;;;6.60;;
5345;SDS011;2695;49.444;11.054;2023-06-22T03:04:09;7.47;;;6.33;;
5345;SDS011;2695;49.444;11.054;2023-06-22T03:06:38;6.67;;;5.97;;
5345;SDS011;2695;49.444;11.054;2023-06-22T03:09:07;9.03;;;6.37;;
5345;SDS011;2695;49.444;11.054;2023-06-22T03:11:35;9.13;;;6.60;;
5345;SDS011;2695;49.444;11.054;2023-06-22T03:14:03;14.07;;;7.60;;
5345;SDS011;2695;49.444;11.054;2023-06-22T03:16:31;9.53;;;7.70;;
5345;SDS011;2695;49.444;11.054;2023-06-22T03:19:00;9.47;;;7.27;;
5345;SDS011;2695;49.444;11.054;2023-06-22T03:21:28;9.90;;;7.30;;
5345;SDS011;2695;49.444;11.054;2023-06-22T03:23:57;11.67;;;8.03;;
5345;SDS011;2695;49.444;11.054;2023-06-22T03:26:25;8.73;;;7.10;;
5345;SDS011;2695;49.444;11.054;2023-06-22T03:28:53;15.37;;;9.00;;
5345;SDS011;2695;49.444;11.054;2023-06-22T03:31:21;10.53;;;8.67;;
5345;SDS011;2695;49.444;11.054;2023-06-22T03:33:50;15.70;;;9.40;;
5345;SDS011;2695;49.444;11.054;2023-06-22T03:36:18;12.40;;;8.00;;
5345;SDS011;2695;49.444;11.054;2023-06-22T03:38:46;12.90;;;7.43;;
5345;SDS011;2695;49.444;11.054;2023-06-22T03:41:16;10.63;;;7.10;;
5345;SDS011;2695;49.444;11.054;2023-06-22T03:43:44;10.23;;;7.73;;
5345;SDS011;2695;49.444;11.054;2023-06-22T03:46:12;10.97;;;8.17;;
5345;SDS011;2695;49.444;11.054;2023-06-22T03:48:40;11.63;;;7.60;;
5345;SDS011;2695;49.444;11.054;2023-06-22T03:51:08;12.53;;;9.03;;
5345;SDS011;2695;49.444;11.054;2023-06-22T03:53:36;15.70;;;8.40;;
5345;SDS011;2695;49.444;11.054;2023-06-22T03:56:04;12.00;;;8.20;;
5345;SDS011;2695;49.444;11.054;2023-06-22T03:58:33;12.53;;;9.90;;
5345;SDS011;2695;49.444;11.054;2023-06-22T04:01:02;9.23;;;6.17;;
5345;SDS011;2695;49.444;11.054;2023-06-22T04:03:30;9.90;;;7.50;;
5345;SDS011;2695;49.444;11.054;2023-06-22T04:05:59;8.97;;;6.97;;
5345;SDS011;2695;49.444;11.054;2023-06-22T04:08:27;9.43;;;7.10;;
5345;SDS011;2695;49.444;11.054;2023-06-22T04:10:54;10.90;;;6.97;;
5345;SDS011;2695;49.444;11.054;2023-06-22T04:13:23;9.87;;;7.10;;
5345;SDS011;2695;49.444;11.054;2023-06-22T04:15:52;11.53;;;6.93;;
5345;SDS011;2695;49.444;11.054;2023-06-22T04:18:20;8.63;;;7.10;;
5345;SDS011;2695;49.444;11.054;2023-06-22T04:20:48;8.33;;;6.93;;
5345;SDS011;2695;49.444;11.054;2023-06-22T04:23:16;8.00;;;6.50;;
5345;SDS011;2695;49.444;11.054;2023-06-22T04:25:44;10.33;;;6.67;;
5345;SDS011;2695;49.444;11.054;2023-06-22T04:28:12;7.80;;;5.87;;
5345;SDS011;2695;49.444;11.054;2023-06-22T04:30:40;8.17;;;6.93;;
5345;SDS011;2695;49.444;11.054;2023-06-22T04:33:14;10.23;;;6.83;;
5345;SDS011;2695;49.444;11.054;2023-06-22T04:35:44;9.10;;;6.40;;
5345;SDS011;2695;49.444;11.054;2023-06-22T04:38:13;7.70;;;6.43;;
5345;SDS011;2695;49.444;11.054;2023-06-22T04:40:41;9.23;;;6.40;;
5345;SDS011;2695;49.444;11.054;2023-06-22T04:43:09;9.10;;;7.00;;
5345;SDS011;2695;49.444;11.054;2023-06-22T04:45:37;9.93;;;7.00;;
5345;SDS011;2695;49.444;11.054;2023-06-22T04:48:05;9.50;;;6.18;;
5345;SDS011;2695;49.444;11.054;2023-06-22T04:50:36;12.35;;;7.45;;
5345;SDS011;2695;49.444;11.054;2023-06-22T04:53:05;7.63;;;6.47;;
5345;SDS011;2695;49.444;11.054;2023-06-22T04:55:33;9.90;;;6.50;;
5345;SDS011;2695;49.444;11.054;2023-06-22T04:58:04;11.80;;;6.75;;
5345;SDS011;2695;49.444;11.054;2023-06-22T05:00:32;9.32;;;6.45;;
5345;SDS011;2695;49.444;11.054;2023-06-22T05:03:02;12.07;;;6.47;;
5345;SDS011;2695;49.444;11.054;2023-06-22T05:05:45;11.98;;;7.28;;
5345;SDS011;2695;49.444;11.054;2023-06-22T05:08:13;9.55;;;6.93;;
5345;SDS011;2695;49.444;11.054;2023-06-22T05:10:41;9.45;;;6.82;;
5345;SDS011;2695;49.444;11.054;2023-06-22T05:13:20;13.23;;;6.18;;
5345;SDS011;2695;49.444;11.054;2023-06-22T05:15:53;8.77;;;5.93;;
5345;SDS011;2695;49.444;11.054;2023-06-22T05:18:27;9.95;;;6.40;;
5345;SDS011;2695;49.444;11.054;2023-06-22T05:20:58;7.82;;;5.82;;
5345;SDS011;2695;49.444;11.054;2023-06-22T05:23:26;9.82;;;7.13;;
5345;SDS011;2695;49.444;11.054;2023-06-22T05:25:54;9.23;;;7.40;;
5345;SDS011;2695;49.444;11.054;2023-06-22T05:28:24;6.82;;;5.88;;
5345;SDS011;2695;49.444;11.054;2023-06-22T05:30:56;7.05;;;5.80;;
5345;SDS011;2695;49.444;11.054;2023-06-22T05:33:24;6.90;;;5.80;;
5345;SDS011;2695;49.444;11.054;2023-06-22T05:35:53;6.60;;;5.90;;
5345;SDS011;2695;49.444;11.054;2023-06-22T05:38:22;9.75;;;6.57;;
5345;SDS011;2695;49.444;11.054;2023-06-22T05:40:50;7.03;;;6.05;;
5345;SDS011;2695;49.444;11.054;2023-06-22T05:43:19;16.27;;;6.95;;
5345;SDS011;2695;49.444;11.054;2023-06-22T05:45:47;9.18;;;6.60;;
5345;SDS011;2695;49.444;11.054;2023-06-22T05:48:15;7.13;;;6.13;;
5345;SDS011;2695;49.444;11.054;2023-06-22T05:50:43;9.30;;;6.75;;
5345;SDS011;2695;49.444;11.054;2023-06-22T05:53:12;7.40;;;6.13;;
5345;SDS011;2695;49.444;11.054;2023-06-22T05:55:41;9.95;;;6.07;;
5345;SDS011;2695;49.444;11.054;2023-06-22T05:58:10;9.07;;;6.13;;
5345;SDS011;2695;49.444;11.054;2023-06-22T06:00:39;8.75;;;7.43;;
5345;SDS011;2695;49.444;11.054;2023-06-22T06:03:09;6.75;;;5.72;;
5345;SDS011;2695;49.444;11.054;2023-06-22T06:05:40;9.65;;;5.97;;
5345;SDS011;2695;49.444;11.054;2023-06-22T06:08:09;7.40;;;6.07;;
5345;SDS011;2695;49.444;11.054;2023-06-22T06:10:38;9.75;;;6.65;;
5345;SDS011;2695;49.444;11.054;2023-06-22T06:13:08;9.00;;;6.60;;
5345;SDS011;2695;49.444;11.054;2023-06-22T06:15:37;6.97;;;6.25;;
5345;SDS011;2695;49.444;11.054;2023-06-22T06:18:09;7.68;;;5.93;;
5345;SDS011;2695;49.444;11.054;2023-06-22T06:20:38;9.55;;;5.93;;
5345;SDS011;2695;49.444;11.054;2023-06-22T06:23:06;8.23;;;6.75;;
5345;SDS011;2695;49.444;11.054;2023-06-22T06:25:34;10.02;;;6.47;;
5345;SDS011;2695;49.444;11.054;2023-06-22T06:28:04;7.28;;;5.57;;
5345;SDS011;2695;49.444;11.054;2023-06-22T06:30:33;9.02;;;6.03;;
5345;SDS011;2695;49.444;11.054;2023-06-22T06:33:03;8.35;;;5.60;;
5345;SDS011;2695;49.444;11.054;2023-06-22T06:35:44;7.47;;;5.90;;
5345;SDS011;2695;49.444;11.054;2023-06-22T06:41:08;6.55;;;5.70;;
5345;SDS011;2695;49.444;11.054;2023-06-22T06:43:36;6.75;;;6.05;;
5345;SDS011;2695;49.444;11.054;2023-06-22T06:46:16;8.65;;;5.65;;
5345;SDS011;2695;49.444;11.054;2023-06-22T06:48:46;6.60;;;5.20;;
5345;SDS011;2695;49.444;11.054;2023-06-22T06:51:20;8.23;;;6.70;;
5345;SDS011;2695;49.444;11.054;2023-06-22T06:53:57;6.10;;;5.28;;
5345;SDS011;2695;49.444;11.054;2023-06-22T06:56:31;6.28;;;5.68;;
5345;SDS011;2695;49.444;11.054;2023-06-22T06:59:01;6.78;;;5.75;;
5345;SDS011;2695;49.444;11.054;2023-06-22T07:01:53;6.07;;;5.47;;
5345;SDS011;2695;49.444;11.054;2023-06-22T07:04:32;7.90;;;6.25;;
5345;SDS011;2695;49.444;11.054;2023-06-22T07:07:20;8.75;;;5.63;;
5345;SDS011;2695;49.444;11.054;2023-06-22T07:09:53;6.22;;;5.63;;
5345;SDS011;2695;49.444;11.054;2023-06-22T07:12:23;5.60;;;4.97;;
5345;SDS011;2695;49.444;11.054;2023-06-22T07:15:01;7.28;;;5.63;;
5345;SDS011;2695;49.444;11.054;2023-06-22T07:20:41;7.50;;;4.88;;
5345;SDS011;2695;49.444;11.054;2023-06-22T07:23:27;5.57;;;5.07;;
5345;SDS011;2695;49.444;11.054;2023-06-22T07:25:58;5.15;;;4.65;;
5345;SDS011;2695;49.444;11.054;2023-06-22T07:28:28;9.52;;;5.03;;
5345;SDS011;2695;49.444;11.054;2023-06-22T07:31:00;6.25;;;4.63;;
5345;SDS011;2695;49.444;11.054;2023-06-22T07:33:29;4.25;;;3.85;;
5345;SDS011;2695;49.444;11.054;2023-06-22T07:35:59;5.57;;;4.43;;
5345;SDS011;2695;49.444;11.054;2023-06-22T07:38:27;8.52;;;5.65;;
5345;SDS011;2695;49.444;11.054;2023-06-22T07:40:55;6.47;;;5.13;;
5345;SDS011;2695;49.444;11.054;2023-06-22T07:43:23;6.38;;;4.47;;
5345;SDS011;2695;49.444;11.054;2023-06-22T07:45:51;6.75;;;5.35;;
5345;SDS011;2695;49.444;11.054;2023-06-22T07:48:20;5.03;;;4.63;;
5345;SDS011;2695;49.444;11.054;2023-06-22T07:50:48;5.90;;;4.45;;
5345;SDS011;2695;49.444;11.054;2023-06-22T07:53:18;7.15;;;4.95;;
5345;SDS011;2695;49.444;11.054;2023-06-22T07:55:46;4.93;;;4.47;;
5345;SDS011;2695;49.444;11.054;2023-06-22T07:58:15;6.03;;;4.28;;
5345;SDS011;2695;49.444;11.054;2023-06-22T08:00:45;7.32;;;4.97;;
5345;SDS011;2695;49.444;11.054;2023-06-22T08:03:15;4.80;;;4.35;;
5345;SDS011;2695;49.444;11.054;2023-06-22T08:05:43;5.35;;;4.30;;
5345;SDS011;2695;49.444;11.054;2023-06-22T08:08:12;5.10;;;4.53;;
5345;SDS011;2695;49.444;11.054;2023-06-22T08:10:42;14.40;;;5.63;;
5345;SDS011;2695;49.444;11.054;2023-06-22T08:13:14;8.68;;;4.68;;
5345;SDS011;2695;49.444;11.054;2023-06-22T08:15:43;10.80;;;4.40;;
5345;SDS011;2695;49.444;11.054;2023-06-22T08:18:15;6.85;;;4.25;;
5345;SDS011;2695;49.444;11.054;2023-06-22T08:20:44;5.07;;;3.55;;
5345;SDS011;2695;49.444;11.054;2023-06-22T08:23:12;5.47;;;4.20;;
5345;SDS011;2695;49.444;11.054;2023-06-22T08:25:43;5.80;;;4.90;;
5345;SDS011;2695;49.444;11.054;2023-06-22T08:28:12;11.43;;;4.53;;
5345;SDS011;2695;49.444;11.054;2023-06-22T08:30:46;15.00;;;4.97;;
5345;SDS011;2695;49.444;11.054;2023-06-22T08:33:16;6.20;;;4.35;;
5345;SDS011;2695;49.444;11.054;2023-06-22T08:35:54;8.95;;;4.03;;
5345;SDS011;2695;49.444;11.054;2023-06-22T08:38:25;4.72;;;4.22;;
5345;SDS011;2695;49.444;11.054;2023-06-22T08:41:05;6.63;;;3.92;;
5345;SDS011;2695;49.444;11.054;2023-06-22T08:43:37;5.97;;;5.03;;
5345;SDS011;2695;49.444;11.054;2023-06-22T08:46:07;5.20;;;3.83;;
5345;SDS011;2695;49.444;11.054;2023-06-22T08:48:36;9.30;;;4.43;;
5345;SDS011;2695;49.444;11.054;2023-06-22T08:51:04;7.72;;;3.70;;
5345;SDS011;2695;49.444;11.054;2023-06-22T08:53:43;5.97;;;3.83;;
5345;SDS011;2695;49.444;11.054;2023-06-22T08:56:42;7.82;;;4.45;;
5345;SDS011;2695;49.444;11.054;2023-06-22T08:59:11;7.82;;;4.05;;
5345;SDS011;2695;49.444;11.054;2023-06-22T09:01:39;7.22;;;4.20;;
5345;SDS011;2695;49.444;11.054;2023-06-22T09:04:07;5.00;;;4.00;;
5345;SDS011;2695;49.444;11.054;2023-06-22T09:10:24;10.25;;;4.20;;
5345;SDS011;2695;49.444;11.054;2023-06-22T09:12:54;7.47;;;4.05;;
5345;SDS011;2695;49.444;11.054;2023-06-22T09:15:22;10.13;;;4.65;;
5345;SDS011;2695;49.444;11.054;2023-06-22T09:17:50;10.35;;;3.83;;
5345;SDS011;2695;49.444;11.054;2023-06-22T09:20:20;6.68;;;3.95;;
5345;SDS011;2695;49.444;11.054;2023-06-22T09:22:48;8.63;;;4.68;;
5345;SDS011;2695;49.444;11.054;2023-06-22T09:25:16;9.75;;;4.22;;
5345;SDS011;2695;49.444;11.054;2023-06-22T09:27:46;6.93;;;4.07;;
5345;SDS011;2695;49.444;11.054;2023-06-22T09:30:16;6.53;;;3.63;;
5345;SDS011;2695;49.444;11.054;2023-06-22T09:32:44;6.38;;;4.25;;
5345;SDS011;2695;49.444;11.054;2023-06-22T09:35:12;7.20;;;4.82;;
5345;SDS011;2695;49.444;11.054;2023-06-22T09:37:40;10.43;;;4.20;;
5345;SDS011;2695;49.444;11.054;2023-06-22T09:40:09;5.40;;;4.10;;
5345;SDS011;2695;49.444;11.054;2023-06-22T09:42:37;7.95;;;4.45;;
5345;SDS011;2695;49.444;11.054;2023-06-22T09:45:06;5.10;;;3.78;;
5345;SDS011;2695;49.444;11.054;2023-06-22T09:47:38;6.10;;;4.05;;
5345;SDS011;2695;49.444;11.054;2023-06-22T09:50:07;8.73;;;4.30;;
5345;SDS011;2695;49.444;11.054;2023-06-22T09:52:36;5.40;;;4.22;;
5345;SDS011;2695;49.444;11.054;2023-06-22T09:55:07;7.28;;;3.92;;
5345;SDS011;2695;49.444;11.054;2023-06-22T09:57:35;6.78;;;4.22;;
5345;SDS011;2695;49.444;11.054;2023-06-22T10:00:04;9.27;;;4.32;;
5345;SDS011;2695;49.444;11.054;2023-06-22T10:02:35;8.68;;;4.70;;
5345;SDS011;2695;49.444;11.054;2023-06-22T10:05:05;12.45;;;4.35;;
5345;SDS011;2695;49.444;11.054;2023-06-22T10:07:34;6.45;;;4.50;;
5345;SDS011;2695;49.444;11.054;2023-06-22T10:10:06;15.15;;;4.82;;
5345;SDS011;2695;49.444;11.054;2023-06-22T10:12:35;7.55;;;4.60;;
5345;SDS011;2695;49.444;11.054;2023-06-22T10:15:03;9.75;;;4.80;;
5345;SDS011;2695;49.444;11.054;2023-06-22T10:17:32;9.98;;;4.68;;
5345;SDS011;2695;49.444;11.054;2023-06-22T10:20:00;6.28;;;4.57;;
5345;SDS011;2695;49.444;11.054;2023-06-22T10:22:33;7.47;;;4.15;;
5345;SDS011;2695;49.444;11.054;2023-06-22T10:25:01;7.22;;;4.50;;
5345;SDS011;2695;49.444;11.054;2023-06-22T10:27:29;7.47;;;4.80;;
5345;SDS011;2695;49.444;11.054;2023-06-22T10:29:57;6.03;;;4.47;;
5345;SDS011;2695;49.444;11.054;2023-06-22T10:32:25;12.30;;;4.07;;
5345;SDS011;2695;49.444;11.054;2023-06-22T10:34:54;5.57;;;4.10;;
5345;SDS011;2695;49.444;11.054;2023-06-22T10:37:25;5.57;;;4.45;;
5345;SDS011;2695;49.444;11.054;2023-06-22T10:39:54;6.43;;;3.55;;
5345;SDS011;2695;49.444;11.054;2023-06-22T11:11:41;11.98;;;5.18;;
5345;SDS011;2695;49.444;11.054;2023-06-22T11:14:10;12.10;;;4.78;;
5345;SDS011;2695;49.444;11.054;2023-06-22T11:16:38;6.63;;;4.20;;
5345;SDS011;2695;49.444;11.054;2023-06-22T11:19:06;9.02;;;4.72;;
5345;SDS011;2695;49.444;11.054;2023-06-22T11:21:34;5.50;;;4.20;;
5345;SDS011;2695;49.444;11.054;2023-06-22T11:24:03;5.88;;;4.63;;
5345;SDS011;2695;49.444;11.054;2023-06-22T11:26:31;8.30;;;4.88;;
5345;SDS011;2695;49.444;11.054;2023-06-22T11:29:01;13.10;;;5.30;;
5345;SDS011;2695;49.444;11.054;2023-06-22T11:31:31;12.93;;;4.95;;
5345;SDS011;2695;49.444;11.054;2023-06-22T11:34:00;11.20;;;5.22;;
5345;SDS011;2695;49.444;11.054;2023-06-22T11:36:29;9.52;;;5.05;;
5345;SDS011;2695;49.444;11.054;2023-06-22T11:38:59;13.38;;;5.38;;
5345;SDS011;2695;49.444;11.054;2023-06-22T11:41:31;8.68;;;5.25;;
5345;SDS011;2695;49.444;11.054;2023-06-22T11:43:59;8.50;;;4.80;;
5345;SDS011;2695;49.444;11.054;2023-06-22T11:46:30;9.43;;;4.47;;
5345;SDS011;2695;49.444;11.054;2023-06-22T11:49:01;12.48;;;4.97;;
5345;SDS011;2695;49.444;11.054;2023-06-22T11:51:29;12.27;;;5.03;;
5345;SDS011;2695;49.444;11.054;2023-06-22T11:53:58;22.60;;;5.78;;
5345;SDS011;2695;49.444;11.054;2023-06-22T12:03:33;10.73;;;4.88;;
5345;SDS011;2695;49.444;11.054;2023-06-22T12:06:01;10.93;;;5.45;;
5345;SDS011;2695;49.444;11.054;2023-06-22T12:08:29;9.90;;;5.07;;
5345;SDS011;2695;49.444;11.054;2023-06-22T12:10:57;8.57;;;4.50;;
5345;SDS011;2695;49.444;11.054;2023-06-22T12:13:25;9.35;;;4.55;;
5345;SDS011;2695;49.444;11.054;2023-06-22T12:15:53;15.05;;;5.38;;
5345;SDS011;2695;49.444;11.054;2023-06-22T12:18:21;12.23;;;5.80;;
5345;SDS011;2695;49.444;11.054;2023-06-22T12:20:50;10.20;;;5.00;;
5345;SDS011;2695;49.444;11.054;2023-06-22T12:23:18;8.25;;;5.60;;
5345;SDS011;2695;49.444;11.054;2023-06-22T12:25:46;9.43;;;5.18;;
5345;SDS011;2695;49.444;11.054;2023-06-22T12:28:14;19.98;;;5.60;;
5345;SDS011;2695;49.444;11.054;2023-06-22T12:30:42;11.13;;;5.68;;
5345;SDS011;2695;49.444;11.054;2023-06-22T12:33:11;17.50;;;5.38;;
5345;SDS011;2695;49.444;11.054;2023-06-22T12:35:39;13.68;;;5.35;;
5345;SDS011;2695;49.444;11.054;2023-06-22T12:38:08;11.88;;;5.22;;
5345;SDS011;2695;49.444;11.054;2023-06-22T12:40:36;13.65;;;5.40;;
5345;SDS011;2695;49.444;11.054;2023-06-22T12:43:04;12.93;;;5.18;;
5345;SDS011;2695;49.444;11.054;2023-06-22T12:45:33;6.30;;;4.88;;
5345;SDS011;2695;49.444;11.054;2023-06-22T12:48:01;6.65;;;4.38;;
5345;SDS011;2695;49.444;11.054;2023-06-22T12:50:29;10.30;;;4.43;;
5345;SDS011;2695;49.444;11.054;2023-06-22T12:52:58;7.47;;;5.13;;
5345;SDS011;2695;49.444;11.054;2023-06-22T12:55:29;10.50;;;5.10;;
5345;SDS011;2695;49.444;11.054;2023-06-22T12:57:57;6.78;;;4.30;;
5345;SDS011;2695;49.444;11.054;2023-06-22T13:00:25;13.55;;;5.60;;
5345;SDS011;2695;49.444;11.054;2023-06-22T13:02:54;11.98;;;5.63;;
5345;SDS011;2695;49.444;11.054;2023-06-22T13:05:22;12.50;;;5.38;;
5345;SDS011;2695;49.444;11.054;2023-06-22T13:07:50;10.43;;;5.07;;
5345;SDS011;2695;49.444;11.054;2023-06-22T13:10:18;7.35;;;4.93;;
5345;SDS011;2695;49.444;11.054;2023-06-22T13:12:47;13.68;;;6.10;;
5345;SDS011;2695;49.444;11.054;2023-06-22T13:15:15;7.72;;;5.28;;
5345;SDS011;2695;49.444;11.054;2023-06-22T13:17:43;8.63;;;4.55;;
5345;SDS011;2695;49.444;11.054;2023-06-22T13:20:11;11.85;;;4.53;;
5345;SDS011;2695;49.444;11.054;2023-06-22T13:22:39;8.73;;;4.72;;
5345;SDS011;2695;49.444;11.054;2023-06-22T13:25:09;10.05;;;5.22;;
5345;SDS011;2695;49.444;11.054;2023-06-22T13:27:39;11.23;;;5.15;;
5345;SDS011;2695;49.444;11.054;2023-06-22T13:30:09;11.32;;;5.65;;
5345;SDS011;2695;49.444;11.054;2023-06-22T13:32:40;17.35;;;5.47;;
5345;SDS011;2695;49.444;11.054;2023-06-22T13:35:09;17.77;;;5.57;;
5345;SDS011;2695;49.444;11.054;2023-06-22T13:37:37;13.75;;;5.68;;
5345;SDS011;2695;49.444;11.054;2023-06-22T13:40:06;8.57;;;4.82;;
5345;SDS011;2695;49.444;11.054;2023-06-22T13:42:35;11.13;;;5.35;;
5345;SDS011;2695;49.444;11.054;2023-06-22T13:45:03;10.63;;;6.00;;
5345;SDS011;2695;49.444;11.054;2023-06-22T13:47:33;11.70;;;5.00;;
5345;SDS011;2695;49.444;11.054;2023-06-22T13:50:01;16.00;;;5.50;;
5345;SDS011;2695;49.444;11.054;2023-06-22T13:52:29;8.30;;;5.47;;
5345;SDS011;2695;49.444;11.054;2023-06-22T13:54:57;16.25;;;6.03;;
5345;SDS011;2695;49.444;11.054;2023-06-22T13:57:25;10.02;;;5.60;;
5345;SDS011;2695;49.444;11.054;2023-06-22T13:59:53;11.93;;;5.07;;
5345;SDS011;2695;49.444;11.054;2023-06-22T14:02:21;16.38;;;5.40;;
5345;SDS011;2695;49.444;11.054;2023-06-22T14:04:50;19.40;;;5.72;;
5345;SDS011;2695;49.444;11.054;2023-06-22T14:07:18;13.40;;;6.10;;
5345;SDS011;2695;49.444;11.054;2023-06-22T14:09:47;19.75;;;5.60;;
5345;SDS011;2695;49.444;11.054;2023-06-22T14:12:16;10.25;;;5.57;;
5345;SDS011;2695;49.444;11.054;2023-06-22T14:14:45;17.98;;;5.28;;
5345;SDS011;2695;49.444;11.054;2023-06-22T14:17:13;8.60;;;5.50;;
5345;SDS011;2695;49.444;11.054;2023-06-22T14:19:41;7.82;;;4.80;;
5345;SDS011;2695;49.444;11.054;2023-06-22T14:22:10;12.98;;;5.82;;
5345;SDS011;2695;49.444;11.054;2023-06-22T14:24:38;8.77;;;5.05;;
5345;SDS011;2695;49.444;11.054;2023-06-22T14:27:06;11.90;;;5.63;;
5345;SDS011;2695;49.444;11.054;2023-06-22T14:29:34;15.63;;;5.82;;
5345;SDS011;2695;49.444;11.054;2023-06-22T14:32:03;7.05;;;4.97;;
5345;SDS011;2695;49.444;11.054;2023-06-22T14:34:32;12.25;;;5.82;;
5345;SDS011;2695;49.444;11.054;2023-06-22T14:37:02;20.25;;;5.47;;
5345;SDS011;2695;49.444;11.054;2023-06-22T14:39:33;9.55;;;5.45;;
5345;SDS011;2695;49.444;11.054;2023-06-22T14:42:01;11.48;;;5.10;;
5345;SDS011;2695;49.444;11.054;2023-06-22T14:44:29;12.85;;;6.10;;
5345;SDS011;2695;49.444;11.054;2023-06-22T14:46:57;15.95;;;6.40;;
5345;SDS011;2695;49.444;11.054;2023-06-22T14:49:25;26.02;;;6.07;;
5345;SDS011;2695;49.444;11.054;2023-06-22T14:51:53;14.73;;;5.32;;
5345;SDS011;2695;49.444;11.054;2023-06-22T14:54:21;9.77;;;5.03;;
5345;SDS011;2695;49.444;11.054;2023-06-22T14:56:51;11.80;;;5.07;;
5345;SDS011;2695;49.444;11.054;2023-06-22T14:59:19;11.57;;;5.47;;
5345;SDS011;2695;49.444;11.054;2023-06-22T15:01:47;11.15;;;5.43;;
5345;SDS011;2695;49.444;11.054;2023-06-22T15:04:15;9.88;;;5.35;;
5345;SDS011;2695;49.444;11.054;2023-06-22T15:06:43;16.65;;;5.43;;
5345;SDS011;2695;49.444;11.054;2023-06-22T15:09:11;14.27;;;5.65;;
5345;SDS011;2695;49.444;11.054;2023-06-22T15:11:39;13.70;;;5.57;;
5345;SDS011;2695;49.444;11.054;2023-06-22T15:14:09;9.50;;;5.47;;
5345;SDS011;2695;49.444;11.054;2023-06-22T15:16:37;13.32;;;5.85;;
5345;SDS011;2695;49.444;11.054;2023-06-22T15:19:05;9.13;;;5.03;;
5345;SDS011;2695;49.444;11.054;2023-06-22T15:21:33;10.93;;;4.90;;
5345;SDS011;2695;49.444;11.054;2023-06-22T15:24:01;13.20;;;5.80;;
5345;SDS011;2695;49.444;11.054;2023-06-22T15:26:29;16.25;;;5.78;;
5345;SDS011;2695;49.444;11.054;2023-06-22T15:28:57;12.07;;;5.53;;
5345;SDS011;2695;49.444;11.054;2023-06-22T15:31:27;12.85;;;5.13;;
5345;SDS011;2695;49.444;11.054;2023-06-22T15:33:55;11.38;;;5.47;;
5345;SDS011;2695;49.444;11.054;2023-06-22T15:36:23;12.90;;;5.45;;
5345;SDS011;2695;49.444;11.054;2023-06-22T15:38:51;17.52;;;6.45;;
5345;SDS011;2695;49.444;11.054;2023-06-22T15:41:19;9.93;;;5.90;;
5345;SDS011;2695;49.444;11.054;2023-06-22T15:43:47;21.30;;;5.57;;
5345;SDS011;2695;49.444;11.054;2023-06-22T15:46:15;15.68;;;5.30;;
5345;SDS011;2695;49.444;11.054;2023-06-22T15:48:45;12.10;;;5.43;;
5345;SDS011;2695;49.444;11.054;2023-06-22T15:51:16;10.05;;;5.90;;
5345;SDS011;2695;49.444;11.054;2023-06-22T15:53:44;8.43;;;4.93;;
5345;SDS011;2695;49.444;11.054;2023-06-22T15:56:12;14.10;;;6.10;;
5345;SDS011;2695;49.444;11.054;2023-06-22T15:58:41;15.88;;;5.20;;